createdAt,value
2022-08-03T00:01:30.270Z,5.33
2022-08-03T00:04:33.896Z,6.27
2022-08-03T00:07:36.024Z,6.37
2022-08-03T00:10:38.124Z,6.40
2022-08-03T00:13:39.900Z,6.17
2022-08-03T00:16:41.635Z,6.20
2022-08-03T00:19:43.264Z,6.30
2022-08-03T00:22:44.851Z,5.80
2022-08-03T00:25:46.443Z,5.93
2022-08-03T00:28:48.741Z,5.20
2022-08-03T00:31:59.221Z,5.07
2022-08-03T00:35:08.310Z,5.30
2022-08-03T00:38:11.467Z,5.67
2022-08-03T00:41:13.079Z,4.97
2022-08-03T00:44:17.364Z,5.47
2022-08-03T00:47:18.967Z,5.13
2022-08-03T00:50:22.936Z,6.47
2022-08-03T00:53:24.667Z,6.20
2022-08-03T00:56:26.956Z,5.53
2022-08-03T00:59:30.250Z,5.20
2022-08-03T01:02:32.098Z,5.30
2022-08-03T01:05:58.708Z,5.87
2022-08-03T01:09:12.132Z,5.20
2022-08-03T01:12:31.151Z,5.70
2022-08-03T01:16:20.428Z,6.07
2022-08-03T01:19:43.072Z,5.87
2022-08-03T01:23:06.363Z,5.73
2022-08-03T01:26:32.644Z,5.90
2022-08-03T01:29:58.998Z,5.40
2022-08-03T01:33:05.144Z,5.57
2022-08-03T01:36:14.473Z,5.20
2022-08-03T01:39:17.263Z,5.13
2022-08-03T01:42:20.896Z,5.60
2022-08-03T01:45:23.202Z,5.07
2022-08-03T01:48:27.253Z,5.20
2022-08-03T01:52:03.332Z,4.93
2022-08-03T01:54:53.271Z,5.00
2022-08-03T01:58:05.268Z,5.43
2022-08-03T02:01:10.183Z,5.30
2022-08-03T02:04:14.613Z,5.33
2022-08-03T02:07:17.026Z,5.37
2022-08-03T02:10:34.361Z,5.20
2022-08-03T02:13:38.158Z,5.10
2022-08-03T02:16:40.731Z,5.40
2022-08-03T02:19:43.219Z,6.50
2022-08-03T02:22:45.980Z,5.07
2022-08-03T02:25:57.322Z,5.50
2022-08-03T02:29:05.603Z,6.13
2022-08-03T02:32:10.420Z,5.73
2022-08-03T02:35:15.082Z,5.40
2022-08-03T02:38:20.117Z,4.87
2022-08-03T02:41:27.806Z,6.23
2022-08-03T02:44:34.396Z,5.90
2022-08-03T02:47:53.313Z,5.60
2022-08-03T02:50:58.282Z,5.80
2022-08-03T02:54:03.675Z,6.07
2022-08-03T02:57:07.801Z,5.90
2022-08-03T03:00:10.231Z,5.60
2022-08-03T03:03:12.500Z,5.93
2022-08-03T03:06:15.652Z,5.97
2022-08-03T03:09:21.671Z,5.70
2022-08-03T03:12:24.531Z,5.40
2022-08-03T03:15:27.805Z,5.27
2022-08-03T03:18:32.068Z,5.53
2022-08-03T03:21:35.248Z,6.00
2022-08-03T03:24:37.797Z,5.67
2022-08-03T03:27:40.464Z,5.77
2022-08-03T03:30:42.790Z,6.27
2022-08-03T03:33:44.635Z,6.97
2022-08-03T03:36:47.348Z,5.80
2022-08-03T03:39:48.932Z,5.90
2022-08-03T03:42:50.877Z,6.70
2022-08-03T03:45:53.640Z,6.23
2022-08-03T03:48:55.396Z,5.97
2022-08-03T03:51:58.085Z,5.87
2022-08-03T03:55:01.252Z,6.00
2022-08-03T03:58:04.066Z,6.27
2022-08-03T04:01:06.331Z,5.40
2022-08-03T04:04:26.826Z,5.60
2022-08-03T04:07:55.728Z,6.10
2022-08-03T04:11:03.186Z,5.93
2022-08-03T04:14:16.566Z,6.20
2022-08-03T04:17:19.552Z,5.60
2022-08-03T04:20:22.747Z,6.00
2022-08-03T04:23:27.864Z,5.57
2022-08-03T04:26:33.663Z,6.10
2022-08-03T04:29:38.717Z,5.13
2022-08-03T04:32:51.867Z,6.83
2022-08-03T04:36:02.301Z,6.03
2022-08-03T04:39:08.471Z,6.57
2022-08-03T04:42:13.535Z,6.10
2022-08-03T04:45:16.456Z,6.47
2022-08-03T04:48:20.050Z,6.90
2022-08-03T04:51:21.867Z,5.60
2022-08-03T04:54:23.494Z,6.10
2022-08-03T04:57:25.107Z,6.17
2022-08-03T05:00:27.458Z,6.20
2022-08-03T05:03:29.119Z,6.27
2022-08-03T05:06:30.854Z,6.30
2022-08-03T05:09:50.081Z,6.90
2022-08-03T05:12:54.075Z,6.70
2022-08-03T05:15:55.690Z,7.80
2022-08-03T05:18:57.323Z,6.67
2022-08-03T05:21:59.471Z,6.63
2022-08-03T05:25:01.795Z,7.50
2022-08-03T05:28:03.666Z,7.30
2022-08-03T05:31:05.589Z,6.60
2022-08-03T05:34:07.257Z,7.20
2022-08-03T05:37:09.282Z,7.00
2022-08-03T05:40:11.614Z,7.23
2022-08-03T05:43:13.203Z,7.80
2022-08-03T05:46:14.842Z,7.23
2022-08-03T05:49:16.551Z,7.67
2022-08-03T05:52:18.304Z,7.50
2022-08-03T05:55:20.155Z,7.67
2022-08-03T05:58:21.957Z,6.83
2022-08-03T06:01:23.561Z,7.80
2022-08-03T06:04:25.302Z,7.13
2022-08-03T06:07:27.022Z,6.80
2022-08-03T06:10:36.190Z,7.40
2022-08-03T06:13:39.718Z,7.10
2022-08-03T06:16:41.348Z,7.13
2022-08-03T06:19:43.028Z,7.03
2022-08-03T06:22:50.833Z,6.90
2022-08-03T06:26:03.059Z,7.10
2022-08-03T06:29:04.660Z,7.10
2022-08-03T06:32:10.170Z,7.27
2022-08-03T06:35:11.944Z,7.83
2022-08-03T06:38:13.580Z,7.23
2022-08-03T06:41:15.260Z,7.50
2022-08-03T06:44:16.962Z,7.50
2022-08-03T06:47:18.563Z,6.97
2022-08-03T06:50:24.242Z,7.20
2022-08-03T06:53:27.739Z,7.37
2022-08-03T06:56:29.541Z,7.70
2022-08-03T07:00:10.584Z,8.20
2022-08-03T07:02:57.759Z,7.47
2022-08-03T07:06:00.382Z,7.67
2022-08-03T07:09:02.635Z,6.87
2022-08-03T07:12:06.466Z,7.87
2022-08-03T07:15:08.939Z,7.00
2022-08-03T07:18:24.442Z,7.10
2022-08-03T07:21:31.300Z,7.40
2022-08-03T07:24:32.895Z,8.00
2022-08-03T07:27:34.606Z,7.50
2022-08-03T07:30:36.285Z,7.20
2022-08-03T07:33:37.892Z,6.70
2022-08-03T07:36:39.550Z,6.43
2022-08-03T07:39:41.184Z,7.20
2022-08-03T07:42:42.768Z,6.50
2022-08-03T07:45:44.486Z,5.90
2022-08-03T07:48:46.127Z,6.20
2022-08-03T07:52:07.874Z,6.10
2022-08-03T07:55:10.538Z,6.47
2022-08-03T07:58:17.227Z,5.50
2022-08-03T08:01:21.748Z,6.30
2022-08-03T08:04:23.386Z,5.77
2022-08-03T08:07:25.989Z,5.40
2022-08-03T08:10:28.182Z,5.33
2022-08-03T08:13:29.800Z,6.13
2022-08-03T08:16:31.428Z,6.07
2022-08-03T08:19:34.523Z,6.47
2022-08-03T08:22:40.637Z,6.23
2022-08-03T08:25:42.904Z,6.43
2022-08-03T08:28:44.552Z,6.60
2022-08-03T08:31:46.248Z,6.77
2022-08-03T08:34:47.854Z,6.70
2022-08-03T08:37:50.991Z,7.00
2022-08-03T08:40:56.233Z,6.50
2022-08-03T08:44:00.238Z,6.50
2022-08-03T08:47:03.889Z,6.40
2022-08-03T08:50:27.417Z,6.40
2022-08-03T08:53:32.676Z,5.77
2022-08-03T08:56:36.952Z,5.47
2022-08-03T08:59:48.481Z,5.33
2022-08-03T09:02:51.770Z,6.47
2022-08-03T09:05:56.160Z,5.63
2022-08-03T09:08:58.247Z,6.30
2022-08-03T09:12:14.582Z,5.80
2022-08-03T09:15:21.702Z,5.53
2022-08-03T09:18:32.930Z,5.40
2022-08-03T09:21:35.096Z,5.40
2022-08-03T09:24:41.420Z,4.88
2022-08-03T09:27:44.947Z,6.70
2022-08-03T09:30:59.119Z,5.60
2022-08-03T09:34:06.334Z,4.78
2022-08-03T09:37:16.288Z,5.10
2022-08-03T09:40:36.235Z,5.35
2022-08-03T09:43:46.729Z,4.88
2022-08-03T09:46:53.454Z,5.15
2022-08-03T09:50:02.081Z,5.50
2022-08-03T09:53:03.905Z,5.18
2022-08-03T09:56:34.219Z,4.85
2022-08-03T09:59:29.505Z,4.90
2022-08-03T10:02:31.313Z,4.80
2022-08-03T10:05:33.243Z,4.78
2022-08-03T10:08:34.844Z,5.05
2022-08-03T10:11:41.817Z,5.05
2022-08-03T10:14:45.621Z,5.47
2022-08-03T10:17:47.280Z,5.40
2022-08-03T10:21:03.146Z,5.68
2022-08-03T10:24:07.859Z,5.40
2022-08-03T10:27:11.265Z,5.43
2022-08-03T10:30:13.576Z,5.53
2022-08-03T10:33:49.782Z,5.30
2022-08-03T10:36:45.362Z,5.30
2022-08-03T10:39:53.644Z,6.20
2022-08-03T10:43:00.955Z,5.68
2022-08-03T10:46:05.059Z,5.80
2022-08-03T10:49:07.578Z,5.80
2022-08-03T10:52:13.687Z,5.32
2022-08-03T10:55:52.201Z,5.55
2022-08-03T10:58:57.862Z,5.65
2022-08-03T11:02:01.054Z,5.43
2022-08-03T11:05:26.486Z,5.40
2022-08-03T11:08:31.292Z,4.93
2022-08-03T11:11:33.093Z,5.15
2022-08-03T11:14:47.143Z,5.40
2022-08-03T11:18:11.442Z,5.63
2022-08-03T11:21:13.280Z,5.63
2022-08-03T11:24:36.451Z,5.90
2022-08-03T11:27:38.736Z,5.70
2022-08-03T11:30:41.214Z,5.20
2022-08-03T11:34:02.787Z,5.30
2022-08-03T11:37:24.612Z,5.10
2022-08-03T11:40:39.530Z,5.60
2022-08-03T11:43:44.102Z,5.65
2022-08-03T11:46:45.763Z,5.15
2022-08-03T11:49:48.568Z,6.28
2022-08-03T11:52:51.031Z,5.10
2022-08-03T11:55:53.828Z,6.05
2022-08-03T11:59:18.194Z,5.28
2022-08-03T12:02:19.568Z,5.45
2022-08-03T12:05:21.196Z,5.25
2022-08-03T12:08:32.271Z,5.15
2022-08-03T12:11:34.071Z,5.03
2022-08-03T12:14:50.946Z,5.20
2022-08-03T12:17:57.685Z,5.32
2022-08-03T12:21:11.770Z,5.28
2022-08-03T12:24:13.466Z,5.40
2022-08-03T12:27:26.393Z,5.05
2022-08-03T12:30:28.088Z,5.50
2022-08-03T12:33:29.990Z,5.10
2022-08-03T12:36:34.374Z,4.95
2022-08-03T12:39:36.275Z,5.47
2022-08-03T12:42:57.997Z,4.93
2022-08-03T12:46:14.327Z,6.03
2022-08-03T12:49:18.655Z,4.85
2022-08-03T12:52:22.725Z,4.90
2022-08-03T12:55:25.248Z,4.95
2022-08-03T12:58:35.561Z,4.75
2022-08-03T13:01:37.871Z,5.00
2022-08-03T13:04:56.819Z,4.95
2022-08-03T13:07:58.872Z,5.18
2022-08-03T13:11:20.966Z,5.13
2022-08-03T13:14:23.714Z,5.30
2022-08-03T13:17:26.656Z,5.45
2022-08-03T13:20:28.558Z,5.68
2022-08-03T13:23:30.195Z,5.32
2022-08-03T13:26:31.921Z,5.22
2022-08-03T13:29:34.648Z,4.63
2022-08-03T13:32:36.642Z,5.07
2022-08-03T13:35:38.284Z,5.13
2022-08-03T13:38:40.022Z,5.20
2022-08-03T13:41:41.852Z,5.15
2022-08-03T13:44:43.456Z,4.90
2022-08-03T13:47:45.067Z,5.20
2022-08-03T13:50:46.657Z,5.75
2022-08-03T13:53:48.259Z,5.35
2022-08-03T13:56:52.773Z,5.50
2022-08-03T13:59:54.817Z,5.45
2022-08-03T14:03:05.239Z,5.00
2022-08-03T14:06:11.105Z,4.90
2022-08-03T14:09:18.003Z,5.30
2022-08-03T14:12:20.016Z,5.32
2022-08-03T14:15:22.702Z,4.93
2022-08-03T14:18:28.652Z,4.93
2022-08-03T14:21:35.582Z,5.30
2022-08-03T14:24:40.314Z,5.13
2022-08-03T14:27:41.934Z,5.10
2022-08-03T14:30:43.590Z,5.30
2022-08-03T14:33:45.357Z,5.00
2022-08-03T14:36:47.139Z,4.90
2022-08-03T14:40:04.475Z,5.00
2022-08-03T14:43:06.348Z,5.60
2022-08-03T14:46:08.001Z,4.80
2022-08-03T14:50:35.017Z,5.30
2022-08-03T14:52:32.578Z,5.32
2022-08-03T14:55:38.207Z,5.15
2022-08-03T14:58:40.738Z,4.47
2022-08-03T15:02:05.134Z,5.38
2022-08-03T15:05:04.155Z,5.40
2022-08-03T15:08:09.202Z,4.90
2022-08-03T15:11:11.369Z,4.60
2022-08-03T15:14:13.584Z,4.85
2022-08-03T15:17:16.515Z,5.03
2022-08-03T15:20:25.468Z,5.07
2022-08-03T15:23:30.674Z,4.70
2022-08-03T15:26:35.416Z,4.60
2022-08-03T15:30:09.386Z,4.75
2022-08-03T15:33:03.029Z,4.60
2022-08-03T15:36:04.960Z,4.55
2022-08-03T15:39:06.852Z,4.95
2022-08-03T15:42:08.522Z,4.25
2022-08-03T15:45:11.210Z,4.40
2022-08-03T15:48:14.479Z,4.78
2022-08-03T15:51:16.464Z,5.30
2022-08-03T15:54:18.087Z,4.95
2022-08-03T15:57:20.448Z,4.50
2022-08-03T16:00:33.173Z,4.72
2022-08-03T16:03:35.769Z,4.35
2022-08-03T16:06:37.534Z,4.60
2022-08-03T16:09:43.421Z,4.57
2022-08-03T16:12:46.016Z,4.50
2022-08-03T16:15:47.985Z,4.93
2022-08-03T16:18:49.655Z,4.68
2022-08-03T16:21:51.239Z,4.80
2022-08-03T16:24:54.485Z,4.95
2022-08-03T16:27:58.151Z,4.63
2022-08-03T16:31:09.378Z,4.53
2022-08-03T16:34:11.058Z,4.28
2022-08-03T16:37:36.925Z,4.72
2022-08-03T16:40:35.042Z,4.00
2022-08-03T16:43:36.670Z,4.68
2022-08-03T16:46:41.536Z,4.25
2022-08-03T16:49:54.748Z,4.30
2022-08-03T16:52:57.873Z,4.60
2022-08-03T16:55:59.993Z,4.40
2022-08-03T16:59:01.747Z,4.50
2022-08-03T17:02:10.191Z,4.20
2022-08-03T17:05:12.771Z,5.15
2022-08-03T17:08:16.434Z,4.88
2022-08-03T17:11:28.070Z,5.43
2022-08-03T17:14:31.597Z,4.18
2022-08-03T17:17:47.426Z,4.97
2022-08-03T17:20:56.509Z,4.60
2022-08-03T17:24:12.562Z,5.68
2022-08-03T17:28:41.969Z,5.13
2022-08-03T17:30:57.395Z,4.03
2022-08-03T17:34:04.339Z,3.80
2022-08-03T17:37:06.532Z,4.32
2022-08-03T17:40:28.752Z,4.45
2022-08-03T17:44:13.678Z,4.00
2022-08-03T17:46:55.465Z,3.75
2022-08-03T17:50:00.200Z,4.35
2022-08-03T17:53:15.513Z,4.32
2022-08-03T17:57:22.396Z,4.25
2022-08-03T18:01:01.453Z,4.03
2022-08-03T18:04:11.054Z,4.10
2022-08-03T18:07:41.458Z,3.97
2022-08-03T18:10:49.623Z,4.05
2022-08-03T18:14:16.495Z,4.63
2022-08-03T18:17:26.250Z,4.30
2022-08-03T18:20:48.535Z,5.07
2022-08-03T18:23:52.076Z,4.10
2022-08-03T18:26:54.628Z,4.43
2022-08-03T18:29:58.275Z,5.05
2022-08-03T18:34:19.465Z,4.35
2022-08-03T18:36:30.378Z,5.10
2022-08-03T18:39:34.823Z,4.78
2022-08-03T18:42:54.722Z,4.45
2022-08-03T18:46:00.996Z,4.20
2022-08-03T18:49:31.378Z,4.35
2022-08-03T18:52:45.878Z,4.18
2022-08-03T18:56:42.385Z,4.30
2022-08-03T18:59:54.804Z,4.80
2022-08-03T19:03:09.169Z,5.05
2022-08-03T19:06:19.975Z,4.80
2022-08-03T19:09:47.861Z,5.75
2022-08-03T19:12:51.334Z,5.13
2022-08-03T19:15:56.461Z,5.35
2022-08-03T19:19:00.679Z,6.50
2022-08-03T19:22:05.348Z,7.22
2022-08-03T19:25:12.115Z,6.53
2022-08-03T19:28:15.914Z,6.30
2022-08-03T19:31:21.368Z,6.03
2022-08-03T19:34:34.351Z,8.90
2022-08-03T19:37:40.089Z,6.93
2022-08-03T19:40:50.959Z,7.13
2022-08-03T19:44:00.222Z,7.80
2022-08-03T19:47:11.046Z,7.75
2022-08-03T19:50:20.410Z,7.32
2022-08-03T19:53:23.830Z,6.33
2022-08-03T19:56:47.860Z,6.67
2022-08-03T19:59:50.791Z,6.47
2022-08-03T20:02:52.771Z,6.60
2022-08-03T20:05:55.086Z,6.70
2022-08-03T20:08:57.542Z,7.03
2022-08-03T20:12:00.414Z,5.90
2022-08-03T20:15:03.410Z,5.40
2022-08-03T20:18:05.258Z,7.23
2022-08-03T20:21:19.213Z,6.57
2022-08-03T20:24:29.307Z,6.33
2022-08-03T20:28:06.906Z,6.50
2022-08-03T20:31:06.821Z,6.23
2022-08-03T20:34:09.199Z,6.50
2022-08-03T20:37:12.175Z,6.97
2022-08-03T20:40:13.934Z,7.17
2022-08-03T20:43:16.883Z,6.67
2022-08-03T20:46:32.187Z,6.03
2022-08-03T20:49:45.640Z,5.40
2022-08-03T20:52:50.542Z,5.80
2022-08-03T20:56:02.087Z,6.20
2022-08-03T20:59:06.014Z,5.63
2022-08-03T21:02:09.197Z,5.90
2022-08-03T21:05:11.624Z,5.23
2022-08-03T21:08:16.883Z,5.57
2022-08-03T21:11:24.903Z,5.70
2022-08-03T21:14:37.016Z,6.77
2022-08-03T21:17:49.572Z,6.40
2022-08-03T21:20:51.639Z,5.77
2022-08-03T21:23:55.536Z,6.90
2022-08-03T21:26:57.675Z,6.87
2022-08-03T21:30:02.980Z,7.50
2022-08-03T21:33:06.848Z,6.90
2022-08-03T21:36:08.892Z,6.20
2022-08-03T21:39:11.162Z,6.30
2022-08-03T21:42:13.753Z,6.07
2022-08-03T21:45:17.733Z,6.60
2022-08-03T21:48:21.453Z,6.47
2022-08-03T21:51:26.643Z,6.10
2022-08-03T21:54:37.079Z,6.50
2022-08-03T21:57:41.939Z,5.90
2022-08-03T22:00:44.404Z,7.83
2022-08-03T22:03:53.901Z,6.70
2022-08-03T22:06:56.022Z,6.50
2022-08-03T22:10:00.084Z,5.60
2022-08-03T22:13:01.807Z,5.80
2022-08-03T22:16:03.755Z,5.97
2022-08-03T22:19:05.404Z,6.63
2022-08-03T22:22:13.585Z,6.40
2022-08-03T22:25:16.362Z,5.80
2022-08-03T22:28:18.995Z,6.07
2022-08-03T22:31:56.886Z,5.97
2022-08-03T22:34:45.403Z,6.40
2022-08-03T22:37:49.536Z,6.30
2022-08-03T22:40:52.365Z,6.03
2022-08-03T22:43:54.442Z,6.00
2022-08-03T22:46:56.396Z,6.00
2022-08-03T22:50:31.608Z,7.70
2022-08-03T22:53:21.898Z,7.30
2022-08-03T22:56:23.590Z,6.70
2022-08-03T22:59:40.159Z,6.87
2022-08-03T23:02:48.296Z,5.87
2022-08-03T23:06:02.060Z,6.43
2022-08-03T23:09:10.652Z,6.53
2022-08-03T23:12:19.331Z,6.30
2022-08-03T23:15:21.170Z,6.10
2022-08-03T23:18:24.036Z,6.70
2022-08-03T23:21:53.148Z,6.17
2022-08-03T23:24:51.716Z,6.33
2022-08-03T23:28:05.715Z,6.20
2022-08-03T23:31:08.374Z,6.77
2022-08-03T23:34:45.860Z,6.37
2022-08-03T23:38:21.566Z,7.13
2022-08-03T23:41:13.310Z,6.47
2022-08-03T23:44:16.473Z,6.37
2022-08-03T23:47:18.088Z,6.13
2022-08-03T23:50:19.813Z,6.70
2022-08-03T23:53:39.993Z,5.97
2022-08-03T23:56:59.785Z,6.23
